Ypenburg Air Force Base, Netherlands

10:38 AM CET on January 30, 2015 (GMT +0100)
Den Haag - Ypenburg | Change Station
CLOSE
Current Station
Personal Weather Station
Location: Den Haag, ZUID-HOLLAND
Elevation: -7 ft
Nearby Weather Stations

Elev -7 ft 52.04 °N, 4.36 °E | Updated 2 minutes ago

Partly Cloudy
Partly Cloudy
34.5 °F
Feels Like 34 °F
N
0.0
Wind Variable Wind from East
Gusts 0.0 mph

Today
High -- | Low -- °F
--% Chance of Precip.
Yesterday
High -- | Low -- °F
Precip. -- in
8:26 AM 5:26 PM
Waxing Gibbous, 81% visible
Pressure 28.85 in
Visibility 6.2 miles
Clouds Few 3500 ft
Windchill 34 °F
Dew Point 34 °F
Humidity 98%
Rainfall 0.00 in
Snow Depth Not available.
UV 0.0 out of 12
Pollen Not available.
Air Quality Not available.
Flu Activity Not available.
METAR EHRD 300925Z AUTO 18003KT 120V260 9999 FEW035 02/01 Q0977 RMK R24/820295 NOSIG

More Conditions Fewer Conditions

Pressure 28.85 in
Visibility 6.2 miles
Clouds Few 3500 ft
Windchill 34 °F
Dew Point 34 °F
Humidity 98%
Rainfall 0.00 in
Snow Depth Not available.
UV 0.0 out of 12
Pollen Not available.
Air Quality Not available.
Flu Activity Not available.
METAR EHRD 300925Z AUTO 18003KT 120V260 9999 FEW035 02/01 Q0977 RMK R24/820295 NOSIG

More Conditions Fewer Conditions

10-Day Weather Forecast

Almanac

Astronomy

Jan. 30, 2015 Rise Set
Actual Time
Civil Twilight
Nautical Twilight
Astronomical Twilight
Moon
Length of Visible Light
Length of Day
Tomorrow will be .
, % of the Moon is Illuminated

Today's Extremes

Country Highs Country Lows

Community

WunderPhotos

Upload Photos

1,791,737 photos uploaded!

WunderBlogs® & News

Nearby

Air Quality

  Air Quality AQ Index Pollutant
Not available.

Snow Depth

Station Depth Elevation

Earthquake Activity

City Distance Mag. Time & Date
Minimum magnitude displayed is 2.5.

Coastal Water Temperatures

Place Temperature

Nearby Weather Stations